Time;durP1;ratioP1;P1;durP2;ratioP2;P2;SDS_P1;SDS_P2;PMS_P1;PMS_P2;Temp;Humidity;BMP_temperature;BMP_pressure;BME280_temperature;BME280_humidity;BME280_pressure;Samples;Min_cycle;Max_cycle;Signal;HPM_P1;HPM_P2
2022/07/11 00:00:12;;;;;;;;;;;;;;;17.11;54.62;100717.83;1640970;85;27572;-58
2022/07/11 00:02:40;;;;;;;;;;;;;;;17.03;55.17;100724.16;1630479;86;25753;-58
2022/07/11 00:05:09;;;;;;;;;;;;;;;16.96;55.31;100715.05;1621129;87;25833;-59
2022/07/11 00:07:37;;;;;;;;;;;;;;;16.94;55.05;100714.40;1626431;86;26099;-59
2022/07/11 00:10:05;;;;;;;;;;;;;;;16.90;55.19;100722.00;1629589;86;25728;-59
2022/07/11 00:12:31;;;;;;;;;;;;;;;16.83;55.59;100718.31;1620362;86;28212;-59
2022/07/11 00:14:58;;;;;;;;;;;;;;;16.80;55.45;100717.34;1626827;86;25919;-58
2022/07/11 00:17:25;;;;;;;;;;;;;;;16.71;55.75;100718.41;1624340;86;25852;-58
2022/07/11 00:19:51;;;;;;;;;;;;;;;16.63;56.30;100719.81;1650590;85;26118;-58
2022/07/11 00:22:18;;;;;;;;;;;;;;;16.54;56.59;100718.98;1661335;85;25760;-59
2022/07/11 00:24:45;;;;;;;;;;;;;;;16.46;57.23;100723.09;1617562;86;27562;-58
2022/07/11 00:27:13;;;;;;;;;;;;;;;16.42;56.75;100711.74;1657534;85;25767;-58
2022/07/11 00:29:40;;;;;;;;;;;;;;;16.42;57.19;100719.89;1658142;85;25757;-58
2022/07/11 00:32:08;;;;;;;;;;;;;;;16.40;56.72;100714.64;1652824;85;26906;-58
2022/07/11 00:34:34;;;;;;;;;;;;;;;16.43;56.66;100721.06;1649605;85;26067;-58
2022/07/11 00:37:01;;;;;;;;;;;;;;;16.45;56.90;100722.76;1613604;86;27523;-59
2022/07/11 00:39:27;;;;;;;;;;;;;;;16.41;57.37;100726.34;1622716;87;26440;-59
2022/07/11 00:41:54;;;;;;;;;;;;;;;16.40;57.18;100724.64;1620917;86;25840;-59
2022/07/11 00:44:20;;;;;;;;;;;;;;;16.34;57.23;100731.61;1625838;86;26107;-59
2022/07/11 00:46:47;;;;;;;;;;;;;;;16.30;57.06;100728.94;1652553;85;25462;-58
2022/07/11 00:49:14;;;;;;;;;;;;;;;16.26;57.31;100726.22;1656894;85;27553;-59
2022/07/11 00:51:42;;;;;;;;;;;;;;;16.21;57.71;100727.27;1643924;86;25873;-58
2022/07/11 00:54:10;;;;;;;;;;;;;;;16.15;57.81;100723.38;1638697;86;25715;-59
2022/07/11 00:56:37;;;;;;;;;;;;;;;16.12;58.20;100726.42;1638533;86;26076;-59
2022/07/11 00:59:04;;;;;;;;;;;;;;;16.07;58.40;100736.45;1638425;86;27409;-59
2022/07/11 01:01:33;;;;;;;;;;;;;;;16.07;57.93;100726.12;1629032;86;27494;-59
2022/07/11 01:04:02;;;;;;;;;;;;;;;16.10;58.38;100728.46;1636179;85;25841;-59
2022/07/11 01:06:29;;;;;;;;;;;;;;;16.14;58.17;100727.63;1630350;85;25926;-59
2022/07/11 01:08:56;;;;;;;;;;;;;;;16.18;58.35;100726.25;1633252;85;26149;-58
2022/07/11 01:11:23;;;;;;;;;;;;;;;16.21;57.84;100719.13;1632853;85;25427;-59
2022/07/11 01:13:50;;;;;;;;;;;;;;;16.24;58.20;100724.18;1622994;85;27480;-58
2022/07/11 01:16:23;;;;;;;;;;;;;;;16.25;57.85;100713.66;1621978;85;26522;-58
2022/07/11 01:18:52;;;;;;;;;;;;;;;16.27;58.18;100716.53;1630407;85;25732;-58
2022/07/11 01:21:39;;;;;;;;;;;;;;;16.30;57.67;100719.92;1631269;86;26156;-58
2022/07/11 01:24:08;;;;;;;;;;;;;;;16.31;57.79;100727.05;1623529;86;25928;-59
2022/07/11 01:26:36;;;;;;;;;;;;;;;16.31;57.96;100718.41;1626855;86;28247;-58
2022/07/11 01:29:09;;;;;;;;;;;;;;;16.25;58.43;100722.67;1624383;86;25927;-59
2022/07/11 01:31:38;;;;;;;;;;;;;;;16.24;58.07;100718.26;1631752;85;25439;-58
2022/07/11 01:34:04;;;;;;;;;;;;;;;16.26;58.37;100724.86;1632178;86;26450;-58
2022/07/11 01:36:31;;;;;;;;;;;;;;;16.25;58.56;100720.45;1628821;86;26071;-58
2022/07/11 01:38:58;;;;;;;;;;;;;;;16.26;58.66;100723.02;1629251;86;27487;-58
2022/07/11 01:41:24;;;;;;;;;;;;;;;16.26;58.29;100721.66;1629190;86;25482;-58
2022/07/11 01:43:51;;;;;;;;;;;;;;;16.26;58.86;100720.79;1632434;85;25925;-58
2022/07/11 01:46:19;;;;;;;;;;;;;;;16.20;59.09;100726.41;1632232;85;26201;-58
2022/07/11 01:48:46;;;;;;;;;;;;;;;16.25;58.30;100721.31;1630166;85;25715;-58
2022/07/11 01:51:12;;;;;;;;;;;;;;;16.30;58.36;100728.94;1619900;86;27530;-59
2022/07/11 01:53:39;;;;;;;;;;;;;;;16.30;59.29;100721.28;1632682;86;26044;-59
2022/07/11 01:56:06;;;;;;;;;;;;;;;16.30;59.11;100731.65;1639232;86;25898;-59
2022/07/11 01:58:33;;;;;;;;;;;;;;;16.29;58.78;100728.59;1623362;85;26882;-59
2022/07/11 02:00:59;;;;;;;;;;;;;;;16.25;58.73;100730.81;1627344;86;25778;-59
2022/07/11 02:03:26;;;;;;;;;;;;;;;16.29;58.78;100734.02;1624706;87;27404;-59
2022/07/11 02:05:53;;;;;;;;;;;;;;;16.31;58.88;100727.91;1637580;86;25709;-58
2022/07/11 02:08:20;;;;;;;;;;;;;;;16.35;58.62;100733.31;1627901;85;25738;-59
2022/07/11 02:10:48;;;;;;;;;;;;;;;16.34;59.09;100730.78;1626698;85;26111;-59
2022/07/11 02:13:18;;;;;;;;;;;;;;;16.24;59.99;100745.41;1619277;86;25865;-58
2022/07/11 02:15:50;;;;;;;;;;;;;;;16.23;59.03;100746.42;1627914;85;27595;-59
2022/07/11 02:18:14;;;;;;;;;;;;;;;16.21;59.33;100746.27;1640048;85;25870;-59
2022/07/11 02:20:42;;;;;;;;;;;;;;;16.16;59.07;100745.42;1626841;86;25886;-59
2022/07/11 02:23:09;;;;;;;;;;;;;;;16.16;59.65;100752.21;1617851;86;26566;-59
2022/07/11 02:25:39;;;;;;;;;;;;;;;16.13;59.76;100756.62;1626461;86;25878;-59
2022/07/11 02:28:11;;;;;;;;;;;;;;;16.06;59.82;100759.17;1645394;86;27413;-59
2022/07/11 02:30:37;;;;;;;;;;;;;;;15.99;60.07;100760.05;1623599;86;25728;-59
2022/07/11 02:33:07;;;;;;;;;;;;;;;15.98;60.59;100757.83;1624227;85;26415;-59
2022/07/11 02:35:34;;;;;;;;;;;;;;;15.96;60.14;100759.86;1620512;86;26973;-59
2022/07/11 02:38:01;;;;;;;;;;;;;;;15.94;59.99;100754.62;1620397;85;25807;-59
2022/07/11 02:40:28;;;;;;;;;;;;;;;15.91;60.51;100763.09;1626516;86;28332;-59
2022/07/11 02:42:55;;;;;;;;;;;;;;;15.89;60.40;100754.80;1617984;86;25860;-59
2022/07/11 02:45:23;;;;;;;;;;;;;;;15.90;60.00;100758.71;1626258;85;25835;-59
2022/07/11 02:47:50;;;;;;;;;;;;;;;15.93;60.29;100761.06;1655604;84;26020;-59
2022/07/11 02:50:16;;;;;;;;;;;;;;;15.89;60.99;100762.93;1657051;85;25815;-59
2022/07/11 02:52:43;;;;;;;;;;;;;;;15.86;60.50;100765.48;1659643;84;27488;-59
2022/07/11 02:55:11;;;;;;;;;;;;;;;15.84;60.64;100770.23;1659750;85;25460;-58
2022/07/11 02:57:38;;;;;;;;;;;;;;;15.77;61.02;100770.05;1651606;85;25929;-59
2022/07/11 03:00:08;;;;;;;;;;;;;;;15.75;60.66;100780.22;1640362;86;26154;-59
2022/07/11 03:02:34;;;;;;;;;;;;;;;15.77;60.70;100773.25;1642977;86;25913;-59
2022/07/11 03:05:02;;;;;;;;;;;;;;;15.76;61.02;100779.20;1630451;86;27461;-59
2022/07/11 03:07:28;;;;;;;;;;;;;;;15.69;61.57;100786.30;1622429;86;25994;-59
2022/07/11 03:09:55;;;;;;;;;;;;;;;15.64;61.14;100782.73;1633181;86;25497;-58
2022/07/11 03:12:22;;;;;;;;;;;;;;;15.68;61.03;100779.70;1629109;86;26164;-58
2022/07/11 03:14:49;;;;;;;;;;;;;;;15.61;61.75;100776.31;1636379;85;25865;-59
2022/07/11 03:17:17;;;;;;;;;;;;;;;15.60;61.70;100783.24;1629618;87;27500;-59
2022/07/11 03:19:43;;;;;;;;;;;;;;;15.57;61.23;100778.18;1634511;86;25709;-59
2022/07/11 03:22:10;;;;;;;;;;;;;;;15.59;61.57;100781.58;1649407;87;25860;-59
2022/07/11 03:24:37;;;;;;;;;;;;;;;15.53;61.87;100783.59;1643404;85;26029;-60
2022/07/11 03:27:05;;;;;;;;;;;;;;;15.47;62.25;100789.17;1631944;86;25811;-59
2022/07/11 03:29:33;;;;;;;;;;;;;;;15.46;62.17;100791.56;1627171;86;27483;-60
2022/07/11 03:32:00;;;;;;;;;;;;;;;15.46;61.79;100788.86;1638452;86;26090;-59
2022/07/11 03:34:27;;;;;;;;;;;;;;;15.47;62.15;100787.33;1631676;86;25710;-59
2022/07/11 03:36:54;;;;;;;;;;;;;;;15.54;61.68;100790.22;1632639;86;26997;-58
2022/07/11 03:39:21;;;;;;;;;;;;;;;15.61;61.66;100787.16;1633306;86;25888;-59
2022/07/11 03:41:47;;;;;;;;;;;;;;;15.69;61.49;100791.72;1621017;85;28447;-59
2022/07/11 03:44:14;;;;;;;;;;;;;;;15.73;61.08;100786.31;1640178;85;25488;-58
2022/07/11 03:46:40;;;;;;;;;;;;;;;15.80;61.02;100786.48;1647819;85;25783;-59
2022/07/11 03:49:08;;;;;;;;;;;;;;;15.84;60.72;100791.92;1660578;84;26330;-59
2022/07/11 03:51:35;;;;;;;;;;;;;;;15.91;61.00;100793.45;1665498;85;25710;-59
2022/07/11 03:54:01;;;;;;;;;;;;;;;15.87;60.83;100785.34;1658504;85;28137;-58
2022/07/11 03:56:27;;;;;;;;;;;;;;;15.88;60.74;100786.52;1662139;85;25763;-59
2022/07/11 03:58:54;;;;;;;;;;;;;;;15.90;60.92;100781.77;1642876;85;25881;-60
2022/07/11 04:01:20;;;;;;;;;;;;;;;15.95;60.89;100801.60;1639375;86;26823;-59
2022/07/11 04:03:47;;;;;;;;;;;;;;;16.03;60.60;100788.52;1634353;86;25453;-59
2022/07/11 04:06:15;;;;;;;;;;;;;;;16.08;60.15;100784.27;1638568;86;27527;-61
2022/07/11 04:08:42;;;;;;;;;;;;;;;16.13;60.25;100786.47;1637043;85;25951;-60
2022/07/11 04:11:09;;;;;;;;;;;;;;;16.20;60.07;100794.25;1632443;86;25478;-60
2022/07/11 04:13:35;;;;;;;;;;;;;;;16.26;59.70;100785.44;1629742;86;26116;-58
2022/07/11 04:16:01;;;;;;;;;;;;;;;16.32;59.53;100784.39;1641682;86;25877;-59
2022/07/11 04:18:28;;;;;;;;;;;;;;;16.42;59.54;100787.23;1642738;86;28240;-59
2022/07/11 04:20:54;;;;;;;;;;;;;;;16.48;59.25;100787.05;1635490;86;25507;-59
2022/07/11 04:23:21;;;;;;;;;;;;;;;16.54;59.29;100789.06;1636964;86;25642;-61
2022/07/11 04:25:48;;;;;;;;;;;;;;;16.57;59.08;100788.72;1632499;86;26191;-59
2022/07/11 04:28:15;;;;;;;;;;;;;;;16.67;59.16;100784.95;1636014;86;25917;-60
2022/07/11 04:30:42;;;;;;;;;;;;;;;16.71;58.93;100790.38;1631190;86;27490;-60
2022/07/11 04:33:09;;;;;;;;;;;;;;;16.70;58.70;100797.67;1631397;86;25872;-60
2022/07/11 04:35:35;;;;;;;;;;;;;;;16.76;58.59;100796.13;1635008;86;25808;-59
2022/07/11 04:38:01;;;;;;;;;;;;;;;16.78;58.46;100798.66;1626952;85;26325;-60
2022/07/11 04:40:29;;;;;;;;;;;;;;;16.77;58.15;100801.03;1629775;86;25792;-59
2022/07/11 04:42:55;;;;;;;;;;;;;;;16.79;58.14;100801.21;1634835;86;27529;-58
2022/07/11 04:45:22;;;;;;;;;;;;;;;16.83;58.34;100795.75;1638584;85;25850;-58
2022/07/11 04:47:49;;;;;;;;;;;;;;;16.90;57.99;100802.16;1665822;85;25781;-59
2022/07/11 04:50:15;;;;;;;;;;;;;;;17.02;57.84;100799.08;1666906;85;26116;-59
2022/07/11 04:52:42;;;;;;;;;;;;;;;17.14;57.62;100811.26;1666823;85;25885;-59
2022/07/11 04:55:09;;;;;;;;;;;;;;;17.21;57.28;100810.03;1659894;85;27393;-59
2022/07/11 04:57:36;;;;;;;;;;;;;;;17.33;56.74;100819.45;1659579;85;25691;-60
2022/07/11 05:00:05;;;;;;;;;;;;;;;17.35;56.57;100809.25;1641964;85;25535;-60
2022/07/11 05:02:31;;;;;;;;;;;;;;;17.51;56.57;100817.83;1638569;85;26734;-60
2022/07/11 05:04:58;;;;;;;;;;;;;;;17.60;56.02;100816.41;1635946;86;25822;-59
2022/07/11 05:07:25;;;;;;;;;;;;;;;17.65;55.62;100817.55;1634677;86;27543;-60
2022/07/11 05:09:51;;;;;;;;;;;;;;;17.75;55.54;100822.73;1642256;85;25828;-59
2022/07/11 05:12:20;;;;;;;;;;;;;;;17.84;55.16;100824.36;1637601;86;25838;-59
2022/07/11 05:14:46;;;;;;;;;;;;;;;17.96;54.77;100822.60;1631927;85;26907;-59
2022/07/11 05:17:12;;;;;;;;;;;;;;;18.09;54.61;100825.53;1633622;86;25804;-60
2022/07/11 05:19:39;;;;;;;;;;;;;;;18.15;54.14;100822.05;1631124;86;27480;-59
2022/07/11 05:22:05;;;;;;;;;;;;;;;18.27;54.21;100823.84;1640461;86;27221;-59
2022/07/11 05:24:32;;;;;;;;;;;;;;;18.36;53.79;100827.84;1628738;85;25692;-59
2022/07/11 05:26:58;;;;;;;;;;;;;;;18.48;53.72;100817.31;1634477;86;26097;-59
2022/07/11 05:29:25;;;;;;;;;;;;;;;18.55;53.43;100829.15;1635385;86;26498;-59
2022/07/11 05:31:52;;;;;;;;;;;;;;;18.65;52.89;100838.42;1634586;86;27490;-60
2022/07/11 05:34:20;;;;;;;;;;;;;;;18.57;52.52;100833.37;1639302;86;25738;-60
2022/07/11 05:36:47;;;;;;;;;;;;;;;18.57;52.82;100843.44;1623699;85;25874;-60
2022/07/11 05:39:15;;;;;;;;;;;;;;;18.49;52.75;100838.08;1633941;85;26946;-58
2022/07/11 05:41:41;;;;;;;;;;;;;;;18.50;52.89;100839.25;1628515;85;25858;-59
2022/07/11 05:44:08;;;;;;;;;;;;;;;18.41;52.98;100831.70;1621364;86;28320;-59
2022/07/11 05:46:39;;;;;;;;;;;;;;;18.35;53.16;100840.59;1626473;86;25876;-58
2022/07/11 05:49:03;;;;;;;;;;;;;;;18.26;53.42;100838.98;1640102;85;25770;-59
2022/07/11 05:51:29;;;;;;;;;;;;;;;18.30;53.30;100838.42;1623539;86;26612;-59
2022/07/11 05:53:56;;;;;;;;;;;;;;;18.22;53.50;100838.51;1626131;85;25661;-59
2022/07/11 05:56:23;;;;;;;;;;;;;;;18.15;53.41;100841.12;1629004;87;27488;-59
2022/07/11 05:58:49;;;;;;;;;;;;;;;17.99;53.79;100840.77;1640961;85;25715;-60
2022/07/11 06:01:16;;;;;;;;;;;;;;;17.93;54.26;100856.95;1627313;86;25484;-59
2022/07/11 06:03:42;;;;;;;;;;;;;;;17.84;54.14;100855.66;1627364;86;26116;-59
2022/07/11 06:06:10;;;;;;;;;;;;;;;17.75;54.09;100846.39;1645075;85;25837;-59
2022/07/11 06:08:43;;;;;;;;;;;;;;;17.71;54.23;100853.20;1659733;85;28288;-59
2022/07/11 06:11:14;;;;;;;;;;;;;;;17.72;54.23;100854.91;1660217;85;25827;-59
2022/07/11 06:13:41;;;;;;;;;;;;;;;17.78;53.94;100836.48;1664802;85;25718;-59
2022/07/11 06:16:09;;;;;;;;;;;;;;;17.93;53.41;100851.50;1658398;85;26075;-57
2022/07/11 06:18:36;;;;;;;;;;;;;;;18.11;53.33;100859.36;1641976;86;25890;-59
2022/07/11 06:21:04;;;;;;;;;;;;;;;18.28;52.72;100855.48;1640306;86;27470;-60
2022/07/11 06:23:31;;;;;;;;;;;;;;;18.38;51.95;100855.70;1640730;86;25891;-60
2022/07/11 06:25:58;;;;;;;;;;;;;;;18.43;51.89;100855.48;1638168;86;25861;-60
2022/07/11 06:28:24;;;;;;;;;;;;;;;18.51;52.11;100860.54;1639560;85;26099;-60
2022/07/11 06:30:51;;;;;;;;;;;;;;;18.47;51.77;100879.11;1631743;86;25745;-60
2022/07/11 06:33:18;;;;;;;;;;;;;;;18.41;51.71;100871.19;1631777;86;27490;-59
2022/07/11 06:35:45;;;;;;;;;;;;;;;18.35;51.91;100874.63;1637952;85;25863;-60
2022/07/11 06:38:13;;;;;;;;;;;;;;;18.30;51.86;100868.38;1632309;86;25485;-59
2022/07/11 06:40:41;;;;;;;;;;;;;;;18.32;51.91;100880.97;1646092;85;26234;-59
2022/07/11 06:43:10;;;;;;;;;;;;;;;18.39;51.72;100871.02;1651910;85;25735;-60
2022/07/11 06:45:38;;;;;;;;;;;;;;;18.62;51.29;100862.78;1659894;84;27561;-59
2022/07/11 06:48:06;;;;;;;;;;;;;;;18.79;50.34;100868.91;1651384;85;25729;-60
2022/07/11 06:50:33;;;;;;;;;;;;;;;19.03;49.92;100867.80;1674443;84;25733;-60
2022/07/11 06:53:00;;;;;;;;;;;;;;;19.20;49.80;100867.58;1651334;86;26790;-59
2022/07/11 06:55:26;;;;;;;;;;;;;;;19.35;49.46;100872.47;1651677;85;25825;-59
2022/07/11 06:57:52;;;;;;;;;;;;;;;19.36;48.63;100876.89;1657243;86;27470;-59
2022/07/11 07:00:19;;;;;;;;;;;;;;;19.26;47.76;100875.52;1640573;85;26153;-59
2022/07/11 07:02:45;;;;;;;;;;;;;;;19.35;48.41;100873.84;1675108;84;25894;-59
2022/07/11 07:05:12;;;;;;;;;;;;;;;19.51;48.36;100866.45;1646791;85;26115;-60
2022/07/11 07:07:40;;;;;;;;;;;;;;;19.50;47.14;100864.25;1630265;86;25859;-61
2022/07/11 07:10:07;;;;;;;;;;;;;;;19.65;47.83;100864.70;1614982;86;27566;-59
2022/07/11 07:12:39;;;;;;;;;;;;;;;19.80;47.11;100851.00;1630080;87;26063;-60
2022/07/11 07:15:07;;;;;;;;;;;;;;;19.91;46.66;100863.30;1629834;86;26184;-59
2022/07/11 07:17:34;;;;;;;;;;;;;;;20.12;46.62;100861.10;1631869;86;26973;-59
2022/07/11 07:20:00;;;;;;;;;;;;;;;20.22;46.18;100856.12;1630381;86;25542;-59
2022/07/11 07:22:27;;;;;;;;;;;;;;;20.42;45.16;100858.16;1630854;86;27544;-61
2022/07/11 07:24:54;;;;;;;;;;;;;;;20.47;44.69;100860.62;1630383;86;25854;-59
2022/07/11 07:27:20;;;;;;;;;;;;;;;20.63;44.15;100849.05;1625805;86;25926;-59
2022/07/11 07:29:48;;;;;;;;;;;;;;;20.83;43.47;100852.45;1627972;87;26096;-60
2022/07/11 07:32:15;;;;;;;;;;;;;;;20.89;43.46;100849.75;1628118;86;25721;-60
2022/07/11 07:34:41;;;;;;;;;;;;;;;21.03;43.30;100858.00;1625451;86;27475;-60
2022/07/11 07:37:08;;;;;;;;;;;;;;;21.13;42.96;100863.12;1625796;86;25899;-59
2022/07/11 07:39:35;;;;;;;;;;;;;;;21.18;41.99;100864.19;1621099;86;25759;-58
2022/07/11 07:42:01;;;;;;;;;;;;;;;21.08;41.21;100870.56;1624502;86;26084;-59
2022/07/11 07:44:28;;;;;;;;;;;;;;;21.03;41.18;100868.44;1626541;87;25829;-60
2022/07/11 07:46:54;;;;;;;;;;;;;;;21.09;41.66;100865.42;1647248;85;27492;-58
2022/07/11 07:49:21;;;;;;;;;;;;;;;20.89;41.30;100865.30;1655504;85;25948;-60
2022/07/11 07:51:48;;;;;;;;;;;;;;;20.70;41.62;100859.52;1648489;85;25724;-60
2022/07/11 07:54:14;;;;;;;;;;;;;;;20.77;42.50;100859.56;1622425;85;26111;-60
2022/07/11 07:56:40;;;;;;;;;;;;;;;20.92;42.31;100859.44;1619138;86;25799;-60
2022/07/11 07:59:07;;;;;;;;;;;;;;;21.15;42.02;100855.02;1615802;86;27502;-60
2022/07/11 08:01:36;;;;;;;;;;;;;;;21.37;42.08;100856.27;1623545;87;25844;-60
2022/07/11 08:04:04;;;;;;;;;;;;;;;21.71;41.11;100844.34;1625575;87;25757;-59
2022/07/11 08:06:32;;;;;;;;;;;;;;;22.07;40.68;100842.28;1626825;86;26118;-59
2022/07/11 08:08:59;;;;;;;;;;;;;;;22.28;40.22;100839.84;1610661;87;26641;-58
2022/07/11 08:11:26;;;;;;;;;;;;;;;22.42;38.83;100857.14;1634896;85;27604;-59
2022/07/11 08:13:53;;;;;;;;;;;;;;;22.20;39.18;100851.84;1621340;87;25827;-60
2022/07/11 08:16:21;;;;;;;;;;;;;;;22.20;39.68;100846.37;1626379;86;26775;-60
2022/07/11 08:18:48;;;;;;;;;;;;;;;22.39;39.82;100846.56;1623518;86;26116;-60
2022/07/11 08:21:15;;;;;;;;;;;;;;;22.52;39.55;100855.33;1626980;87;25741;-60
2022/07/11 08:23:42;;;;;;;;;;;;;;;22.61;39.46;100854.04;1619629;85;27610;-59
2022/07/11 08:26:09;;;;;;;;;;;;;;;22.70;39.08;100848.32;1614160;86;26021;-60
2022/07/11 08:28:36;;;;;;;;;;;;;;;22.72;38.33;100855.81;1616838;86;25867;-60
2022/07/11 08:31:03;;;;;;;;;;;;;;;22.67;38.86;100857.83;1611906;87;26167;-59
2022/07/11 08:33:30;;;;;;;;;;;;;;;22.53;39.12;100855.64;1625938;85;25795;-59
2022/07/11 08:35:57;;;;;;;;;;;;;;;22.32;39.11;100863.01;1628186;87;27528;-59
2022/07/11 08:38:24;;;;;;;;;;;;;;;22.23;39.19;100856.09;1619972;86;25916;-59
2022/07/11 08:41:11;;;;;;;;;;;;;;;22.19;39.13;100865.23;1615033;86;25892;-59
2022/07/11 08:43:38;;;;;;;;;;;;;;;22.14;39.09;100855.45;1614573;86;26136;-61
2022/07/11 08:46:06;;;;;;;;;;;;;;;22.12;39.17;100856.72;1617060;85;25896;-60
2022/07/11 08:48:33;;;;;;;;;;;;;;;22.25;38.89;100851.22;1614177;87;27551;-59
2022/07/11 08:51:17;;;;;;;;;;;;;;;22.57;38.38;100851.94;1600849;88;25914;-59
2022/07/11 08:53:44;;;;;;;;;;;;;;;22.71;38.59;100857.73;1598950;86;25713;-59
2022/07/11 08:56:15;;;;;;;;;;;;;;;22.50;38.32;100856.91;1643343;86;26149;-59
2022/07/11 08:58:42;;;;;;;;;;;;;;;22.27;38.40;100853.22;1635113;86;25874;-59
2022/07/11 09:01:09;;;;;;;;;;;;;;;21.93;38.20;100864.71;1624416;86;27529;-60
2022/07/11 09:03:37;;;;;;;;;;;;;;;21.98;39.01;100860.80;1631443;86;25735;-59
2022/07/11 09:06:04;;;;;;;;;;;;;;;22.24;38.35;100836.37;1635977;86;25756;-60
2022/07/11 09:08:32;;;;;;;;;;;;;;;22.40;38.33;100844.72;1637592;86;26262;-59
2022/07/11 09:10:59;;;;;;;;;;;;;;;22.57;38.46;100850.57;1639854;85;25770;-60
2022/07/11 09:13:30;;;;;;;;;;;;;;;22.88;38.33;100849.85;1633267;87;26916;-60
2022/07/11 09:16:08;;;;;;;;;;;;;;;23.12;36.79;100845.55;1631580;86;25913;-59
2022/07/11 09:18:37;;;;;;;;;;;;;;;23.02;36.29;100851.19;1619986;87;25729;-59
2022/07/11 09:26:41;;;;;;;;;;;;;;;22.77;37.20;100837.66;1656641;85;27601;-60
2022/07/11 09:29:14;;;;;;;;;;;;;;;23.24;36.06;100835.29;1651223;85;26949;-60
2022/07/11 09:31:44;;;;;;;;;;;;;;;23.55;34.55;100833.62;1647169;85;26020;-58
2022/07/11 09:34:13;;;;;;;;;;;;;;;23.69;35.09;100832.48;1609037;87;26192;-57
2022/07/11 09:36:50;;;;;;;;;;;;;;;24.14;34.46;100834.25;1638614;85;25880;-58
2022/07/11 09:39:21;;;;;;;;;;;;;;;24.72;33.04;100831.38;1641625;85;27715;-58
2022/07/11 09:41:51;;;;;;;;;;;;;;;25.20;33.20;100835.23;1652317;85;25475;-59
2022/07/11 09:44:26;;;;;;;;;;;;;;;25.22;30.36;100844.95;1655599;86;25766;-59
2022/07/11 09:46:53;;;;;;;;;;;;;;;25.30;30.85;100836.89;1664481;84;26118;-59
2022/07/11 09:49:35;;;;;;;;;;;;;;;25.24;31.10;100831.77;1660206;85;25692;-59
2022/07/11 09:52:15;;;;;;;;;;;;;;;25.36;30.88;100830.99;1651924;85;27586;-59
2022/07/11 09:55:00;;;;;;;;;;;;;;;25.17;31.06;100836.53;1655428;85;25835;-59
2022/07/11 09:57:38;;;;;;;;;;;;;;;24.97;31.70;100828.55;1653864;85;25882;-58
2022/07/11 10:00:24;;;;;;;;;;;;;;;25.20;31.31;100836.08;1602477;86;26152;-58
2022/07/11 10:02:53;;;;;;;;;;;;;;;25.27;31.82;100834.08;1594669;86;25825;-59
2022/07/11 10:05:20;;;;;;;;;;;;;;;25.89;31.22;100826.08;1622462;86;27641;-59
2022/07/11 10:07:47;;;;;;;;;;;;;;;25.80;30.29;100825.30;1648877;86;25767;-58
2022/07/11 10:10:14;;;;;;;;;;;;;;;25.48;30.94;100831.92;1657722;85;25767;-58
2022/07/11 10:12:41;;;;;;;;;;;;;;;25.22;30.44;100838.59;1624099;86;26181;-59
2022/07/11 10:15:09;;;;;;;;;;;;;;;25.73;30.19;100821.26;1630620;86;25824;-59
2022/07/11 10:17:59;;;;;;;;;;;;;;;26.32;29.73;100813.07;1634211;86;27493;-59
2022/07/11 10:20:48;;;;;;;;;;;;;;;26.64;27.88;100829.77;1636674;86;25931;-59
2022/07/11 10:23:33;;;;;;;;;;;;;;;27.13;27.65;100814.25;1642055;86;25732;-60
2022/07/11 10:26:16;;;;;;;;;;;;;;;27.72;27.25;100809.84;1634825;85;26203;-59
2022/07/11 10:29:01;;;;;;;;;;;;;;;28.31;25.90;100816.86;1627427;86;25862;-59
2022/07/11 10:31:30;;;;;;;;;;;;;;;28.64;25.58;100815.12;1636836;87;27454;-59
2022/07/11 10:34:06;;;;;;;;;;;;;;;29.29;24.15;100817.29;1636694;86;25930;-59
2022/07/11 10:36:36;;;;;;;;;;;;;;;29.84;23.57;100812.55;1630326;86;25976;-60
2022/07/11 10:39:29;;;;;;;;;;;;;;;30.14;22.43;100818.09;1631464;87;26341;-59
2022/07/11 10:41:57;;;;;;;;;;;;;;;29.74;21.68;100829.09;1621292;86;26552;-59
2022/07/11 10:44:24;;;;;;;;;;;;;;;29.72;22.94;100809.14;1635374;87;27470;-59
2022/07/11 10:46:54;;;;;;;;;;;;;;;30.44;23.23;100809.65;1649351;86;25491;-59
2022/07/11 10:49:33;;;;;;;;;;;;;;;30.13;22.65;100809.48;1666489;85;25812;-60
2022/07/11 10:52:06;;;;;;;;;;;;;;;30.09;21.96;100819.42;1649795;84;26120;-59
2022/07/11 10:54:44;;;;;;;;;;;;;;;29.38;22.51;100834.30;1664917;85;25845;-59
2022/07/11 10:57:15;;;;;;;;;;;;;;;28.67;23.75;100815.15;1655797;85;27481;-60
2022/07/11 10:59:59;;;;;;;;;;;;;;;28.54;24.29;100817.75;1623767;87;25807;-60
2022/07/11 11:02:27;;;;;;;;;;;;;;;28.56;24.20;100822.45;1622766;86;25898;-59
2022/07/11 11:04:58;;;;;;;;;;;;;;;29.30;24.13;100818.97;1624783;86;26268;-59
2022/07/11 11:07:43;;;;;;;;;;;;;;;29.45;22.84;100820.53;1625228;86;25788;-59
2022/07/11 11:10:34;;;;;;;;;;;;;;;29.67;22.98;100827.95;1632062;86;27513;-59
2022/07/11 11:13:06;;;;;;;;;;;;;;;30.05;22.23;100816.91;1606504;87;25858;-60
2022/07/11 11:15:52;;;;;;;;;;;;;;;30.78;22.21;100816.26;1605871;87;25910;-60
2022/07/11 11:18:28;;;;;;;;;;;;;;;31.17;20.38;100804.73;1612458;88;26045;-60
2022/07/11 11:21:07;;;;;;;;;;;;;;;30.67;21.91;100825.64;1610704;87;25777;-59
2022/07/11 11:23:48;;;;;;;;;;;;;;;29.44;21.84;100843.80;1614123;87;27463;-59
2022/07/11 11:26:18;;;;;;;;;;;;;;;29.23;22.25;100834.40;1620273;87;26454;-59
2022/07/11 11:29:00;;;;;;;;;;;;;;;29.73;21.98;100828.27;1617604;88;25777;-59
2022/07/11 11:31:29;;;;;;;;;;;;;;;30.56;22.04;100836.69;1616803;86;26908;-59
2022/07/11 11:33:58;;;;;;;;;;;;;;;31.17;20.82;100827.52;1600389;88;25857;-59
2022/07/11 11:36:27;;;;;;;;;;;;;;;31.27;20.87;100830.88;1595602;88;26873;-60
2022/07/11 11:38:55;;;;;;;;;;;;;;;32.14;20.18;100828.73;1591813;88;44215;-60
2022/07/11 11:41:27;;;;;;;;;;;;;;;32.54;19.49;100833.98;1602258;88;25891;-60
2022/07/11 11:43:55;;;;;;;;;;;;;;;33.02;18.87;100841.04;1602146;88;26959;-60
2022/07/11 11:46:30;;;;;;;;;;;;;;;32.53;18.71;100827.27;1624369;85;26118;-59
2022/07/11 11:48:59;;;;;;;;;;;;;;;32.54;18.73;100837.30;1650250;85;27435;-60
2022/07/11 11:51:31;;;;;;;;;;;;;;;32.64;19.30;100823.34;1654040;85;25813;-60
2022/07/11 11:54:00;;;;;;;;;;;;;;;33.05;18.61;100828.76;1658410;84;25901;-60
2022/07/11 11:56:54;;;;;;;;;;;;;;;33.06;18.75;100830.43;1648217;85;26082;-59
2022/07/11 11:59:24;;;;;;;;;;;;;;;33.13;18.76;100811.19;1661795;85;25846;-60
2022/07/11 12:01:51;;;;;;;;;;;;;;;33.70;17.31;100814.44;1659670;85;27508;-60
2022/07/11 12:04:18;;;;;;;;;;;;;;;33.78;16.69;100812.96;1665575;85;25820;-60
2022/07/11 12:06:50;;;;;;;;;;;;;;;34.04;17.45;100805.23;1659739;85;25808;-60
2022/07/11 12:09:46;;;;;;;;;;;;;;;34.64;17.71;100807.67;1656969;85;26082;-61
2022/07/11 12:12:43;;;;;;;;;;;;;;;34.83;17.35;100802.66;1632868;86;25747;-61
2022/07/11 12:14:20;;;;;;;;;;;;;;;35.34;16.85;100801.70;1613594;87;27618;-60
2022/07/11 12:16:48;;;;;;;;;;;;;;;35.66;16.82;100796.74;1618741;88;25736;-61
2022/07/11 12:19:21;;;;;;;;;;;;;;;36.37;16.01;100809.73;1601683;88;25832;-61
2022/07/11 12:21:50;;;;;;;;;;;;;;;35.79;15.75;100789.52;1614521;86;26102;-60
2022/07/11 12:24:26;;;;;;;;;;;;;;;34.29;15.96;100813.06;1616364;87;25858;-61
2022/07/11 12:26:53;;;;;;;;;;;;;;;33.15;16.67;100814.50;1617585;87;27639;-60
2022/07/11 12:29:24;;;;;;;;;;;;;;;32.09;17.80;100814.84;1619453;87;25767;-61
2022/07/11 12:32:01;;;;;;;;;;;;;;;31.71;18.17;100812.91;1623319;87;25832;-61
2022/07/11 12:34:37;;;;;;;;;;;;;;;31.41;19.06;100811.72;1605006;87;26098;-60
2022/07/11 12:37:06;;;;;;;;;;;;;;;30.38;19.87;100816.28;1622013;87;25751;-60
2022/07/11 12:39:38;;;;;;;;;;;;;;;29.54;21.26;100826.42;1619331;86;28582;-60
2022/07/11 12:42:22;;;;;;;;;;;;;;;29.55;22.02;100821.73;1612567;87;25857;-60
2022/07/11 12:45:09;;;;;;;;;;;;;;;30.09;21.65;100819.42;1616244;86;25827;-60
2022/07/11 12:47:42;;;;;;;;;;;;;;;30.12;21.65;100822.49;1648369;86;27427;-59
2022/07/11 12:50:21;;;;;;;;;;;;;;;29.94;21.94;100831.27;1641047;86;25877;-60